sensor_id;sensor_type;location;lat;lon;timestamp;P1;durP1;ratioP1;P2;durP2;ratioP2
24559;SDS011;12727;49.934;8.656;2023-03-19T00:00:03;8.43;;;3.65;;
24559;SDS011;12727;49.934;8.656;2023-03-19T00:02:29;7.47;;;3.25;;
24559;SDS011;12727;49.934;8.656;2023-03-19T00:04:56;8.18;;;3.75;;
24559;SDS011;12727;49.934;8.656;2023-03-19T00:07:21;12.98;;;4.20;;
24559;SDS011;12727;49.934;8.656;2023-03-19T00:09:47;12.25;;;4.20;;
24559;SDS011;12727;49.934;8.656;2023-03-19T00:12:13;7.05;;;3.83;;
24559;SDS011;12727;49.934;8.656;2023-03-19T00:14:38;10.65;;;4.65;;
24559;SDS011;12727;49.934;8.656;2023-03-19T00:17:04;8.13;;;4.95;;
24559;SDS011;12727;49.934;8.656;2023-03-19T00:19:31;9.75;;;4.53;;
24559;SDS011;12727;49.934;8.656;2023-03-19T00:21:56;9.40;;;4.43;;
24559;SDS011;12727;49.934;8.656;2023-03-19T00:24:22;8.52;;;4.53;;
24559;SDS011;12727;49.934;8.656;2023-03-19T00:26:48;9.55;;;4.45;;
24559;SDS011;12727;49.934;8.656;2023-03-19T00:29:13;7.65;;;4.07;;
24559;SDS011;12727;49.934;8.656;2023-03-19T00:31:39;10.15;;;4.47;;
24559;SDS011;12727;49.934;8.656;2023-03-19T00:34:06;14.35;;;6.93;;
24559;SDS011;12727;49.934;8.656;2023-03-19T00:36:32;9.85;;;4.05;;
24559;SDS011;12727;49.934;8.656;2023-03-19T00:38:58;6.00;;;3.75;;
24559;SDS011;12727;49.934;8.656;2023-03-19T00:41:24;11.30;;;4.00;;
24559;SDS011;12727;49.934;8.656;2023-03-19T00:43:53;7.82;;;4.15;;
24559;SDS011;12727;49.934;8.656;2023-03-19T00:46:20;8.38;;;4.63;;
24559;SDS011;12727;49.934;8.656;2023-03-19T00:48:46;9.43;;;4.70;;
24559;SDS011;12727;49.934;8.656;2023-03-19T00:51:12;11.88;;;5.35;;
24559;SDS011;12727;49.934;8.656;2023-03-19T00:53:39;11.98;;;5.22;;
24559;SDS011;12727;49.934;8.656;2023-03-19T00:56:09;9.52;;;4.78;;
24559;SDS011;12727;49.934;8.656;2023-03-19T00:58:37;13.45;;;5.60;;
24559;SDS011;12727;49.934;8.656;2023-03-19T01:01:05;9.15;;;5.20;;
24559;SDS011;12727;49.934;8.656;2023-03-19T01:03:31;10.00;;;4.70;;
24559;SDS011;12727;49.934;8.656;2023-03-19T01:05:57;7.80;;;4.18;;
24559;SDS011;12727;49.934;8.656;2023-03-19T01:08:23;11.07;;;4.18;;
24559;SDS011;12727;49.934;8.656;2023-03-19T01:10:49;8.73;;;3.97;;
24559;SDS011;12727;49.934;8.656;2023-03-19T01:13:14;7.70;;;3.72;;
24559;SDS011;12727;49.934;8.656;2023-03-19T01:15:41;7.75;;;4.00;;
24559;SDS011;12727;49.934;8.656;2023-03-19T01:18:08;7.25;;;3.25;;
24559;SDS011;12727;49.934;8.656;2023-03-19T01:20:34;7.80;;;3.75;;
24559;SDS011;12727;49.934;8.656;2023-03-19T01:23:02;6.38;;;3.60;;
24559;SDS011;12727;49.934;8.656;2023-03-19T01:25:28;6.18;;;3.72;;
24559;SDS011;12727;49.934;8.656;2023-03-19T01:27:54;7.13;;;3.63;;
24559;SDS011;12727;49.934;8.656;2023-03-19T01:30:19;9.27;;;3.85;;
24559;SDS011;12727;49.934;8.656;2023-03-19T01:32:45;7.97;;;3.55;;
24559;SDS011;12727;49.934;8.656;2023-03-19T01:35:11;7.57;;;3.50;;
24559;SDS011;12727;49.934;8.656;2023-03-19T01:37:37;6.47;;;3.53;;
24559;SDS011;12727;49.934;8.656;2023-03-19T01:40:03;10.07;;;3.92;;
24559;SDS011;12727;49.934;8.656;2023-03-19T01:42:30;9.75;;;4.10;;
24559;SDS011;12727;49.934;8.656;2023-03-19T01:44:56;7.45;;;3.42;;
24559;SDS011;12727;49.934;8.656;2023-03-19T01:47:33;7.72;;;3.60;;
24559;SDS011;12727;49.934;8.656;2023-03-19T01:50:01;8.52;;;3.97;;
24559;SDS011;12727;49.934;8.656;2023-03-19T01:52:28;8.35;;;4.00;;
24559;SDS011;12727;49.934;8.656;2023-03-19T01:54:57;5.97;;;3.88;;
24559;SDS011;12727;49.934;8.656;2023-03-19T01:57:25;8.00;;;3.40;;
24559;SDS011;12727;49.934;8.656;2023-03-19T01:59:53;6.07;;;3.88;;
24559;SDS011;12727;49.934;8.656;2023-03-19T02:02:28;14.30;;;4.10;;
24559;SDS011;12727;49.934;8.656;2023-03-19T02:04:57;13.10;;;3.80;;
24559;SDS011;12727;49.934;8.656;2023-03-19T02:07:25;6.72;;;3.65;;
24559;SDS011;12727;49.934;8.656;2023-03-19T02:09:53;7.60;;;4.00;;
24559;SDS011;12727;49.934;8.656;2023-03-19T02:12:19;10.20;;;4.43;;
24559;SDS011;12727;49.934;8.656;2023-03-19T02:14:44;8.75;;;4.38;;
24559;SDS011;12727;49.934;8.656;2023-03-19T02:17:10;8.98;;;4.55;;
24559;SDS011;12727;49.934;8.656;2023-03-19T02:22:12;7.70;;;4.18;;
24559;SDS011;12727;49.934;8.656;2023-03-19T02:24:43;6.05;;;3.72;;
24559;SDS011;12727;49.934;8.656;2023-03-19T02:27:27;7.22;;;4.30;;
24559;SDS011;12727;49.934;8.656;2023-03-19T02:29:53;8.60;;;4.22;;
24559;SDS011;12727;49.934;8.656;2023-03-19T02:32:18;8.38;;;3.80;;
24559;SDS011;12727;49.934;8.656;2023-03-19T02:34:44;9.90;;;4.57;;
24559;SDS011;12727;49.934;8.656;2023-03-19T02:42:15;7.55;;;4.00;;
24559;SDS011;12727;49.934;8.656;2023-03-19T02:44:42;8.05;;;3.90;;
24559;SDS011;12727;49.934;8.656;2023-03-19T02:47:08;8.02;;;3.25;;
24559;SDS011;12727;49.934;8.656;2023-03-19T02:49:33;10.05;;;3.55;;
24559;SDS011;12727;49.934;8.656;2023-03-19T02:52:00;8.20;;;3.25;;
24559;SDS011;12727;49.934;8.656;2023-03-19T02:54:25;6.85;;;2.75;;
24559;SDS011;12727;49.934;8.656;2023-03-19T02:56:51;11.27;;;2.85;;
24559;SDS011;12727;49.934;8.656;2023-03-19T02:59:17;6.80;;;3.08;;
24559;SDS011;12727;49.934;8.656;2023-03-19T03:01:43;8.05;;;2.65;;
24559;SDS011;12727;49.934;8.656;2023-03-19T03:04:08;9.70;;;3.38;;
24559;SDS011;12727;49.934;8.656;2023-03-19T03:06:34;9.68;;;3.03;;
24559;SDS011;12727;49.934;8.656;2023-03-19T03:09:00;8.82;;;3.17;;
24559;SDS011;12727;49.934;8.656;2023-03-19T03:11:26;6.43;;;2.90;;
24559;SDS011;12727;49.934;8.656;2023-03-19T03:13:51;6.25;;;2.53;;
24559;SDS011;12727;49.934;8.656;2023-03-19T03:16:17;9.00;;;3.50;;
24559;SDS011;12727;49.934;8.656;2023-03-19T03:18:42;9.05;;;3.40;;
24559;SDS011;12727;49.934;8.656;2023-03-19T03:21:08;9.90;;;3.15;;
24559;SDS011;12727;49.934;8.656;2023-03-19T03:23:34;8.00;;;3.00;;
24559;SDS011;12727;49.934;8.656;2023-03-19T03:26:00;11.25;;;3.40;;
24559;SDS011;12727;49.934;8.656;2023-03-19T03:28:26;8.70;;;3.17;;
24559;SDS011;12727;49.934;8.656;2023-03-19T03:30:57;12.23;;;3.60;;
24559;SDS011;12727;49.934;8.656;2023-03-19T03:33:23;7.43;;;3.35;;
24559;SDS011;12727;49.934;8.656;2023-03-19T03:35:49;5.30;;;2.25;;
24559;SDS011;12727;49.934;8.656;2023-03-19T03:38:15;9.23;;;2.95;;
24559;SDS011;12727;49.934;8.656;2023-03-19T03:40:42;10.82;;;3.00;;
24559;SDS011;12727;49.934;8.656;2023-03-19T03:43:07;4.82;;;2.92;;
24559;SDS011;12727;49.934;8.656;2023-03-19T03:45:34;6.65;;;3.30;;
24559;SDS011;12727;49.934;8.656;2023-03-19T03:48:00;8.60;;;3.40;;
24559;SDS011;12727;49.934;8.656;2023-03-19T03:50:25;8.30;;;3.60;;
24559;SDS011;12727;49.934;8.656;2023-03-19T03:52:51;8.90;;;3.40;;
24559;SDS011;12727;49.934;8.656;2023-03-19T03:55:16;5.60;;;3.05;;
24559;SDS011;12727;49.934;8.656;2023-03-19T03:57:42;6.00;;;3.30;;
24559;SDS011;12727;49.934;8.656;2023-03-19T04:00:08;6.95;;;3.55;;
24559;SDS011;12727;49.934;8.656;2023-03-19T04:02:34;8.13;;;3.95;;
24559;SDS011;12727;49.934;8.656;2023-03-19T04:05:00;9.25;;;3.70;;
24559;SDS011;12727;49.934;8.656;2023-03-19T04:07:26;9.93;;;3.83;;
24559;SDS011;12727;49.934;8.656;2023-03-19T04:09:51;7.82;;;3.70;;
24559;SDS011;12727;49.934;8.656;2023-03-19T04:12:17;6.90;;;3.60;;
24559;SDS011;12727;49.934;8.656;2023-03-19T04:14:43;8.20;;;4.00;;
24559;SDS011;12727;49.934;8.656;2023-03-19T04:17:09;7.72;;;4.25;;
24559;SDS011;12727;49.934;8.656;2023-03-19T04:19:35;7.70;;;4.43;;
24559;SDS011;12727;49.934;8.656;2023-03-19T04:22:00;7.65;;;3.55;;
24559;SDS011;12727;49.934;8.656;2023-03-19T04:24:27;8.85;;;3.90;;
24559;SDS011;12727;49.934;8.656;2023-03-19T04:26:53;6.68;;;3.85;;
24559;SDS011;12727;49.934;8.656;2023-03-19T04:29:18;7.05;;;3.67;;
24559;SDS011;12727;49.934;8.656;2023-03-19T04:31:45;6.70;;;3.88;;
24559;SDS011;12727;49.934;8.656;2023-03-19T04:34:10;7.25;;;3.97;;
24559;SDS011;12727;49.934;8.656;2023-03-19T04:36:37;6.05;;;4.22;;
24559;SDS011;12727;49.934;8.656;2023-03-19T04:39:02;6.93;;;3.88;;
24559;SDS011;12727;49.934;8.656;2023-03-19T04:41:29;6.10;;;3.47;;
24559;SDS011;12727;49.934;8.656;2023-03-19T04:43:54;9.35;;;3.78;;
24559;SDS011;12727;49.934;8.656;2023-03-19T04:46:20;7.40;;;3.50;;
24559;SDS011;12727;49.934;8.656;2023-03-19T04:48:45;6.07;;;3.50;;
24559;SDS011;12727;49.934;8.656;2023-03-19T04:51:11;8.95;;;3.38;;
24559;SDS011;12727;49.934;8.656;2023-03-19T04:53:37;7.18;;;3.72;;
24559;SDS011;12727;49.934;8.656;2023-03-19T04:56:04;6.75;;;3.78;;
24559;SDS011;12727;49.934;8.656;2023-03-19T04:58:31;5.15;;;3.50;;
24559;SDS011;12727;49.934;8.656;2023-03-19T05:00:56;9.65;;;3.60;;
24559;SDS011;12727;49.934;8.656;2023-03-19T05:03:22;7.78;;;3.85;;
24559;SDS011;12727;49.934;8.656;2023-03-19T05:05:48;7.95;;;3.65;;
24559;SDS011;12727;49.934;8.656;2023-03-19T05:08:13;8.40;;;3.42;;
24559;SDS011;12727;49.934;8.656;2023-03-19T05:10:39;8.38;;;2.88;;
24559;SDS011;12727;49.934;8.656;2023-03-19T05:13:06;9.25;;;3.00;;
24559;SDS011;12727;49.934;8.656;2023-03-19T05:15:32;6.15;;;3.17;;
24559;SDS011;12727;49.934;8.656;2023-03-19T05:17:57;7.63;;;3.13;;
24559;SDS011;12727;49.934;8.656;2023-03-19T05:20:23;10.45;;;3.58;;
24559;SDS011;12727;49.934;8.656;2023-03-19T05:22:50;5.90;;;2.90;;
24559;SDS011;12727;49.934;8.656;2023-03-19T05:25:17;5.95;;;2.95;;
24559;SDS011;12727;49.934;8.656;2023-03-19T05:27:44;7.75;;;3.17;;
24559;SDS011;12727;49.934;8.656;2023-03-19T05:30:10;5.78;;;2.85;;
24559;SDS011;12727;49.934;8.656;2023-03-19T05:32:36;7.53;;;3.30;;
24559;SDS011;12727;49.934;8.656;2023-03-19T05:35:02;5.13;;;3.10;;
24559;SDS011;12727;49.934;8.656;2023-03-19T05:37:28;9.73;;;3.72;;
24559;SDS011;12727;49.934;8.656;2023-03-19T05:39:53;6.28;;;3.17;;
24559;SDS011;12727;49.934;8.656;2023-03-19T05:42:19;5.90;;;3.28;;
24559;SDS011;12727;49.934;8.656;2023-03-19T05:44:45;9.32;;;3.70;;
24559;SDS011;12727;49.934;8.656;2023-03-19T05:47:12;12.05;;;3.30;;
24559;SDS011;12727;49.934;8.656;2023-03-19T05:49:37;6.55;;;3.00;;
24559;SDS011;12727;49.934;8.656;2023-03-19T05:52:03;7.43;;;2.92;;
24559;SDS011;12727;49.934;8.656;2023-03-19T05:54:29;5.35;;;3.05;;
24559;SDS011;12727;49.934;8.656;2023-03-19T05:56:54;6.85;;;3.28;;
24559;SDS011;12727;49.934;8.656;2023-03-19T05:59:20;5.05;;;2.80;;
24559;SDS011;12727;49.934;8.656;2023-03-19T06:01:46;7.63;;;2.60;;
24559;SDS011;12727;49.934;8.656;2023-03-19T06:04:11;7.60;;;3.15;;
24559;SDS011;12727;49.934;8.656;2023-03-19T06:06:37;9.23;;;3.05;;
24559;SDS011;12727;49.934;8.656;2023-03-19T06:09:02;9.13;;;3.10;;
24559;SDS011;12727;49.934;8.656;2023-03-19T06:11:28;5.43;;;2.97;;
24559;SDS011;12727;49.934;8.656;2023-03-19T06:13:54;5.72;;;3.05;;
24559;SDS011;12727;49.934;8.656;2023-03-19T06:16:19;7.68;;;3.83;;
24559;SDS011;12727;49.934;8.656;2023-03-19T06:18:45;7.53;;;4.05;;
24559;SDS011;12727;49.934;8.656;2023-03-19T06:21:11;5.40;;;3.20;;
24559;SDS011;12727;49.934;8.656;2023-03-19T06:23:37;7.63;;;3.45;;
24559;SDS011;12727;49.934;8.656;2023-03-19T06:26:02;6.97;;;3.40;;
24559;SDS011;12727;49.934;8.656;2023-03-19T06:28:29;7.43;;;3.67;;
24559;SDS011;12727;49.934;8.656;2023-03-19T06:30:55;6.85;;;3.88;;
24559;SDS011;12727;49.934;8.656;2023-03-19T06:33:21;11.48;;;4.80;;
24559;SDS011;12727;49.934;8.656;2023-03-19T06:35:47;8.38;;;4.28;;
24559;SDS011;12727;49.934;8.656;2023-03-19T06:38:16;6.53;;;3.60;;
24559;SDS011;12727;49.934;8.656;2023-03-19T06:40:41;6.53;;;3.30;;
24559;SDS011;12727;49.934;8.656;2023-03-19T06:43:07;6.00;;;2.95;;
24559;SDS011;12727;49.934;8.656;2023-03-19T06:49:00;8.23;;;3.28;;
24559;SDS011;12727;49.934;8.656;2023-03-19T06:51:26;6.70;;;3.40;;
24559;SDS011;12727;49.934;8.656;2023-03-19T06:56:50;7.32;;;3.78;;
24559;SDS011;12727;49.934;8.656;2023-03-19T06:59:15;5.97;;;3.33;;
24559;SDS011;12727;49.934;8.656;2023-03-19T07:01:41;7.68;;;4.35;;
24559;SDS011;12727;49.934;8.656;2023-03-19T07:04:07;11.60;;;5.20;;
24559;SDS011;12727;49.934;8.656;2023-03-19T07:06:33;13.50;;;5.03;;
24559;SDS011;12727;49.934;8.656;2023-03-19T07:08:59;11.10;;;4.72;;
24559;SDS011;12727;49.934;8.656;2023-03-19T07:11:25;9.63;;;4.60;;
24559;SDS011;12727;49.934;8.656;2023-03-19T07:13:51;7.30;;;4.15;;
24559;SDS011;12727;49.934;8.656;2023-03-19T07:16:16;9.48;;;4.47;;
24559;SDS011;12727;49.934;8.656;2023-03-19T07:18:42;7.72;;;4.05;;
24559;SDS011;12727;49.934;8.656;2023-03-19T07:21:08;6.75;;;4.15;;
24559;SDS011;12727;49.934;8.656;2023-03-19T07:23:33;8.40;;;4.30;;
24559;SDS011;12727;49.934;8.656;2023-03-19T07:25:59;9.07;;;3.80;;
24559;SDS011;12727;49.934;8.656;2023-03-19T07:28:24;8.05;;;4.68;;
24559;SDS011;12727;49.934;8.656;2023-03-19T07:30:51;9.77;;;4.18;;
24559;SDS011;12727;49.934;8.656;2023-03-19T07:33:17;8.13;;;4.15;;
24559;SDS011;12727;49.934;8.656;2023-03-19T07:35:43;7.70;;;4.03;;
24559;SDS011;12727;49.934;8.656;2023-03-19T07:38:09;7.50;;;3.88;;
24559;SDS011;12727;49.934;8.656;2023-03-19T07:40:34;6.75;;;3.55;;
24559;SDS011;12727;49.934;8.656;2023-03-19T07:43:00;7.78;;;3.92;;
24559;SDS011;12727;49.934;8.656;2023-03-19T07:45:26;8.80;;;3.78;;
24559;SDS011;12727;49.934;8.656;2023-03-19T07:47:52;8.77;;;3.80;;
24559;SDS011;12727;49.934;8.656;2023-03-19T07:50:18;5.90;;;3.40;;
24559;SDS011;12727;49.934;8.656;2023-03-19T07:52:46;5.32;;;3.50;;
24559;SDS011;12727;49.934;8.656;2023-03-19T07:55:13;7.25;;;3.63;;
24559;SDS011;12727;49.934;8.656;2023-03-19T07:57:39;6.55;;;3.30;;
24559;SDS011;12727;49.934;8.656;2023-03-19T08:00:05;5.53;;;3.08;;
24559;SDS011;12727;49.934;8.656;2023-03-19T08:02:32;5.82;;;3.60;;
24559;SDS011;12727;49.934;8.656;2023-03-19T08:04:57;5.50;;;3.30;;
24559;SDS011;12727;49.934;8.656;2023-03-19T08:07:26;8.73;;;3.60;;
24559;SDS011;12727;49.934;8.656;2023-03-19T08:09:51;5.13;;;3.47;;
24559;SDS011;12727;49.934;8.656;2023-03-19T08:12:17;8.48;;;3.90;;
24559;SDS011;12727;49.934;8.656;2023-03-19T08:14:43;6.43;;;3.42;;
24559;SDS011;12727;49.934;8.656;2023-03-19T08:17:11;6.05;;;3.33;;
24559;SDS011;12727;49.934;8.656;2023-03-19T08:19:37;6.05;;;3.10;;
24559;SDS011;12727;49.934;8.656;2023-03-19T08:22:02;6.10;;;3.05;;
24559;SDS011;12727;49.934;8.656;2023-03-19T08:24:28;7.18;;;3.40;;
24559;SDS011;12727;49.934;8.656;2023-03-19T08:26:53;7.05;;;3.50;;
24559;SDS011;12727;49.934;8.656;2023-03-19T08:29:19;5.47;;;3.28;;
24559;SDS011;12727;49.934;8.656;2023-03-19T08:31:45;5.55;;;3.17;;
24559;SDS011;12727;49.934;8.656;2023-03-19T08:34:11;5.72;;;3.13;;
24559;SDS011;12727;49.934;8.656;2023-03-19T08:36:36;5.72;;;3.30;;
24559;SDS011;12727;49.934;8.656;2023-03-19T08:39:02;7.18;;;3.13;;
24559;SDS011;12727;49.934;8.656;2023-03-19T08:41:28;7.75;;;3.13;;
24559;SDS011;12727;49.934;8.656;2023-03-19T08:43:54;6.15;;;3.20;;
24559;SDS011;12727;49.934;8.656;2023-03-19T08:46:19;6.15;;;3.10;;
24559;SDS011;12727;49.934;8.656;2023-03-19T08:48:45;4.78;;;3.03;;
24559;SDS011;12727;49.934;8.656;2023-03-19T08:51:11;6.60;;;3.35;;
24559;SDS011;12727;49.934;8.656;2023-03-19T08:53:37;5.43;;;2.80;;
24559;SDS011;12727;49.934;8.656;2023-03-19T08:56:04;4.72;;;2.85;;
24559;SDS011;12727;49.934;8.656;2023-03-19T08:58:31;4.97;;;3.15;;
24559;SDS011;12727;49.934;8.656;2023-03-19T09:01:04;6.68;;;2.95;;
24559;SDS011;12727;49.934;8.656;2023-03-19T09:03:32;5.00;;;2.58;;
24559;SDS011;12727;49.934;8.656;2023-03-19T09:06:00;4.70;;;2.47;;
24559;SDS011;12727;49.934;8.656;2023-03-19T09:08:27;4.28;;;2.58;;
24559;SDS011;12727;49.934;8.656;2023-03-19T09:10:53;5.75;;;2.58;;
24559;SDS011;12727;49.934;8.656;2023-03-19T09:13:19;9.85;;;2.63;;
24559;SDS011;12727;49.934;8.656;2023-03-19T09:15:46;6.97;;;2.63;;
24559;SDS011;12727;49.934;8.656;2023-03-19T09:18:11;5.15;;;2.88;;
24559;SDS011;12727;49.934;8.656;2023-03-19T09:20:37;4.55;;;2.20;;
24559;SDS011;12727;49.934;8.656;2023-03-19T09:23:03;5.32;;;2.55;;
24559;SDS011;12727;49.934;8.656;2023-03-19T09:25:29;4.97;;;2.03;;
24559;SDS011;12727;49.934;8.656;2023-03-19T09:27:54;4.10;;;2.10;;
24559;SDS011;12727;49.934;8.656;2023-03-19T09:30:20;4.40;;;2.17;;
24559;SDS011;12727;49.934;8.656;2023-03-19T09:32:48;4.03;;;2.28;;
24559;SDS011;12727;49.934;8.656;2023-03-19T09:35:19;4.20;;;2.25;;
24559;SDS011;12727;49.934;8.656;2023-03-19T09:37:50;3.85;;;1.90;;
24559;SDS011;12727;49.934;8.656;2023-03-19T09:40:24;2.90;;;1.70;;
24559;SDS011;12727;49.934;8.656;2023-03-19T09:43:08;4.78;;;1.77;;
24559;SDS011;12727;49.934;8.656;2023-03-19T09:45:43;7.47;;;2.22;;
24559;SDS011;12727;49.934;8.656;2023-03-19T09:48:15;4.00;;;2.03;;
24559;SDS011;12727;49.934;8.656;2023-03-19T09:50:52;4.15;;;2.30;;
24559;SDS011;12727;49.934;8.656;2023-03-19T09:53:22;3.45;;;2.10;;
24559;SDS011;12727;49.934;8.656;2023-03-19T09:55:51;3.13;;;1.95;;
24559;SDS011;12727;49.934;8.656;2023-03-19T09:58:19;3.67;;;1.55;;
24559;SDS011;12727;49.934;8.656;2023-03-19T10:00:53;4.30;;;2.13;;
24559;SDS011;12727;49.934;8.656;2023-03-19T10:03:41;4.32;;;2.17;;
24559;SDS011;12727;49.934;8.656;2023-03-19T10:06:26;5.97;;;2.22;;
24559;SDS011;12727;49.934;8.656;2023-03-19T10:09:09;5.43;;;2.20;;
24559;SDS011;12727;49.934;8.656;2023-03-19T10:16:58;3.58;;;2.03;;
24559;SDS011;12727;49.934;8.656;2023-03-19T10:19:33;4.50;;;2.47;;
24559;SDS011;12727;49.934;8.656;2023-03-19T10:22:06;5.47;;;2.72;;
24559;SDS011;12727;49.934;8.656;2023-03-19T10:24:36;8.80;;;2.95;;
24559;SDS011;12727;49.934;8.656;2023-03-19T10:27:12;5.10;;;2.60;;
24559;SDS011;12727;49.934;8.656;2023-03-19T10:29:42;4.30;;;2.67;;
24559;SDS011;12727;49.934;8.656;2023-03-19T10:34:48;6.78;;;3.13;;
24559;SDS011;12727;49.934;8.656;2023-03-19T10:37:19;7.07;;;3.08;;
24559;SDS011;12727;49.934;8.656;2023-03-19T10:39:50;7.20;;;3.00;;
24559;SDS011;12727;49.934;8.656;2023-03-19T10:47:57;6.00;;;2.60;;
24559;SDS011;12727;49.934;8.656;2023-03-19T10:50:29;5.05;;;2.65;;
24559;SDS011;12727;49.934;8.656;2023-03-19T10:55:37;7.30;;;3.03;;
24559;SDS011;12727;49.934;8.656;2023-03-19T10:58:18;7.70;;;2.90;;
24559;SDS011;12727;49.934;8.656;2023-03-19T11:00:47;5.30;;;2.97;;
24559;SDS011;12727;49.934;8.656;2023-03-19T11:06:38;5.82;;;3.72;;
24559;SDS011;12727;49.934;8.656;2023-03-19T11:09:11;6.78;;;3.08;;
24559;SDS011;12727;49.934;8.656;2023-03-19T11:11:44;5.15;;;3.30;;
24559;SDS011;12727;49.934;8.656;2023-03-19T11:16:58;4.07;;;2.83;;
24559;SDS011;12727;49.934;8.656;2023-03-19T11:19:52;5.70;;;2.88;;
24559;SDS011;12727;49.934;8.656;2023-03-19T11:22:26;3.65;;;2.58;;
24559;SDS011;12727;49.934;8.656;2023-03-19T11:24:59;4.32;;;2.90;;
24559;SDS011;12727;49.934;8.656;2023-03-19T11:27:38;5.80;;;3.10;;
24559;SDS011;12727;49.934;8.656;2023-03-19T11:30:16;5.22;;;3.10;;
24559;SDS011;12727;49.934;8.656;2023-03-19T11:38:01;7.43;;;2.90;;
24559;SDS011;12727;49.934;8.656;2023-03-19T11:46:28;7.95;;;2.80;;
24559;SDS011;12727;49.934;8.656;2023-03-19T11:51:40;6.93;;;2.90;;
24559;SDS011;12727;49.934;8.656;2023-03-19T11:54:15;4.25;;;2.72;;
24559;SDS011;12727;49.934;8.656;2023-03-19T11:56:58;3.95;;;2.25;;
24559;SDS011;12727;49.934;8.656;2023-03-19T12:02:23;5.97;;;2.80;;
24559;SDS011;12727;49.934;8.656;2023-03-19T12:27:27;7.10;;;3.22;;
24559;SDS011;12727;49.934;8.656;2023-03-19T12:35:38;6.50;;;3.33;;
24559;SDS011;12727;49.934;8.656;2023-03-19T12:40:42;8.00;;;3.75;;
24559;SDS011;12727;49.934;8.656;2023-03-19T12:43:16;4.47;;;3.00;;
24559;SDS011;12727;49.934;8.656;2023-03-19T12:45:58;4.88;;;3.17;;
24559;SDS011;12727;49.934;8.656;2023-03-19T12:48:32;5.25;;;3.40;;
24559;SDS011;12727;49.934;8.656;2023-03-19T12:51:07;6.45;;;3.00;;
24559;SDS011;12727;49.934;8.656;2023-03-19T12:56:40;5.15;;;2.78;;
24559;SDS011;12727;49.934;8.656;2023-03-19T12:59:10;4.13;;;2.80;;
24559;SDS011;12727;49.934;8.656;2023-03-19T13:01:50;7.03;;;3.00;;
24559;SDS011;12727;49.934;8.656;2023-03-19T13:04:24;6.65;;;3.08;;
24559;SDS011;12727;49.934;8.656;2023-03-19T13:07:00;5.22;;;3.47;;
24559;SDS011;12727;49.934;8.656;2023-03-19T13:09:31;5.28;;;3.30;;
24559;SDS011;12727;49.934;8.656;2023-03-19T13:12:16;4.60;;;3.45;;
24559;SDS011;12727;49.934;8.656;2023-03-19T13:23:10;6.47;;;3.50;;
24559;SDS011;12727;49.934;8.656;2023-03-19T13:26:08;5.47;;;3.45;;
24559;SDS011;12727;49.934;8.656;2023-03-19T13:31:43;4.57;;;2.53;;
24559;SDS011;12727;49.934;8.656;2023-03-19T13:36:58;6.65;;;2.55;;
24559;SDS011;12727;49.934;8.656;2023-03-19T13:39:55;5.90;;;2.20;;
24559;SDS011;12727;49.934;8.656;2023-03-19T13:48:21;3.00;;;1.55;;
24559;SDS011;12727;49.934;8.656;2023-03-19T13:59:44;3.58;;;2.08;;
24559;SDS011;12727;49.934;8.656;2023-03-19T14:04:52;4.85;;;3.10;;
24559;SDS011;12727;49.934;8.656;2023-03-19T14:07:27;7.05;;;3.20;;
24559;SDS011;12727;49.934;8.656;2023-03-19T14:12:33;3.47;;;2.20;;
24559;SDS011;12727;49.934;8.656;2023-03-19T14:15:03;4.93;;;2.13;;
24559;SDS011;12727;49.934;8.656;2023-03-19T14:20:57;3.67;;;1.70;;
24559;SDS011;12727;49.934;8.656;2023-03-19T14:23:50;3.20;;;1.70;;
24559;SDS011;12727;49.934;8.656;2023-03-19T14:26:48;2.83;;;1.92;;
24559;SDS011;12727;49.934;8.656;2023-03-19T14:29:13;2.80;;;1.75;;
24559;SDS011;12727;49.934;8.656;2023-03-19T14:31:50;3.00;;;2.00;;
24559;SDS011;12727;49.934;8.656;2023-03-19T14:34:31;3.42;;;1.92;;
24559;SDS011;12727;49.934;8.656;2023-03-19T14:37:17;3.75;;;2.28;;
24559;SDS011;12727;49.934;8.656;2023-03-19T14:52:43;3.58;;;1.90;;
24559;SDS011;12727;49.934;8.656;2023-03-19T14:59:15;4.68;;;2.00;;
24559;SDS011;12727;49.934;8.656;2023-03-19T15:15:25;1.70;;;0.82;;
24559;SDS011;12727;49.934;8.656;2023-03-19T15:18:44;1.92;;;1.10;;
24559;SDS011;12727;49.934;8.656;2023-03-19T15:21:28;2.08;;;0.98;;
24559;SDS011;12727;49.934;8.656;2023-03-19T15:24:13;2.05;;;1.00;;
24559;SDS011;12727;49.934;8.656;2023-03-19T15:26:50;1.92;;;1.30;;
24559;SDS011;12727;49.934;8.656;2023-03-19T15:29:47;2.85;;;1.00;;
24559;SDS011;12727;49.934;8.656;2023-03-19T15:35:07;1.60;;;0.80;;
24559;SDS011;12727;49.934;8.656;2023-03-19T15:37:40;3.88;;;0.85;;
24559;SDS011;12727;49.934;8.656;2023-03-19T15:40:09;2.03;;;0.85;;
24559;SDS011;12727;49.934;8.656;2023-03-19T15:42:37;1.80;;;1.02;;
24559;SDS011;12727;49.934;8.656;2023-03-19T15:45:05;1.50;;;0.70;;
24559;SDS011;12727;49.934;8.656;2023-03-19T15:47:40;1.17;;;0.70;;
24559;SDS011;12727;49.934;8.656;2023-03-19T15:50:45;1.30;;;0.50;;
24559;SDS011;12727;49.934;8.656;2023-03-19T15:53:25;1.10;;;0.45;;
24559;SDS011;12727;49.934;8.656;2023-03-19T15:58:51;0.75;;;0.20;;
24559;SDS011;12727;49.934;8.656;2023-03-19T16:01:20;0.40;;;0.17;;
24559;SDS011;12727;49.934;8.656;2023-03-19T16:03:56;0.47;;;0.20;;
24559;SDS011;12727;49.934;8.656;2023-03-19T16:06:28;0.30;;;0.22;;
24559;SDS011;12727;49.934;8.656;2023-03-19T16:09:16;0.40;;;0.20;;
24559;SDS011;12727;49.934;8.656;2023-03-19T16:11:51;1.02;;;0.30;;
24559;SDS011;12727;49.934;8.656;2023-03-19T16:14:22;0.40;;;0.20;;
24559;SDS011;12727;49.934;8.656;2023-03-19T16:16:51;0.75;;;0.35;;
24559;SDS011;12727;49.934;8.656;2023-03-19T16:19:30;0.77;;;0.40;;
24559;SDS011;12727;49.934;8.656;2023-03-19T16:21:58;5.03;;;2.42;;
24559;SDS011;12727;49.934;8.656;2023-03-19T16:24:34;7.13;;;2.95;;
24559;SDS011;12727;49.934;8.656;2023-03-19T16:27:03;2.63;;;0.70;;
24559;SDS011;12727;49.934;8.656;2023-03-19T16:29:39;1.42;;;0.40;;
24559;SDS011;12727;49.934;8.656;2023-03-19T16:32:19;3.03;;;1.20;;
24559;SDS011;12727;49.934;8.656;2023-03-19T16:34:49;1.52;;;0.63;;
24559;SDS011;12727;49.934;8.656;2023-03-19T16:42:28;3.95;;;0.82;;
24559;SDS011;12727;49.934;8.656;2023-03-19T16:44:54;1.73;;;0.88;;
24559;SDS011;12727;49.934;8.656;2023-03-19T16:47:20;1.83;;;0.90;;
24559;SDS011;12727;49.934;8.656;2023-03-19T16:49:47;1.73;;;0.90;;
24559;SDS011;12727;49.934;8.656;2023-03-19T16:52:14;2.33;;;0.68;;
24559;SDS011;12727;49.934;8.656;2023-03-19T16:54:42;1.52;;;0.95;;
24559;SDS011;12727;49.934;8.656;2023-03-19T16:57:09;1.27;;;1.00;;
24559;SDS011;12727;49.934;8.656;2023-03-19T16:59:36;1.70;;;1.10;;
24559;SDS011;12727;49.934;8.656;2023-03-19T17:02:08;1.75;;;1.20;;
24559;SDS011;12727;49.934;8.656;2023-03-19T17:04:35;1.67;;;1.00;;
24559;SDS011;12727;49.934;8.656;2023-03-19T17:07:01;1.55;;;1.10;;
24559;SDS011;12727;49.934;8.656;2023-03-19T17:09:26;3.85;;;1.30;;
24559;SDS011;12727;49.934;8.656;2023-03-19T17:11:52;2.63;;;1.45;;
24559;SDS011;12727;49.934;8.656;2023-03-19T17:14:19;2.83;;;1.20;;
24559;SDS011;12727;49.934;8.656;2023-03-19T17:16:45;2.35;;;1.27;;
24559;SDS011;12727;49.934;8.656;2023-03-19T17:19:33;2.35;;;1.30;;
24559;SDS011;12727;49.934;8.656;2023-03-19T17:22:00;4.10;;;2.55;;
24559;SDS011;12727;49.934;8.656;2023-03-19T17:24:30;4.47;;;1.98;;
24559;SDS011;12727;49.934;8.656;2023-03-19T17:27:17;3.03;;;1.42;;
24559;SDS011;12727;49.934;8.656;2023-03-19T17:29:42;2.92;;;1.40;;
24559;SDS011;12727;49.934;8.656;2023-03-19T17:32:13;3.35;;;1.50;;
24559;SDS011;12727;49.934;8.656;2023-03-19T17:34:42;3.67;;;1.73;;
24559;SDS011;12727;49.934;8.656;2023-03-19T17:37:09;2.47;;;1.80;;
24559;SDS011;12727;49.934;8.656;2023-03-19T17:39:38;3.60;;;2.60;;
24559;SDS011;12727;49.934;8.656;2023-03-19T17:42:19;3.80;;;2.40;;